Time;durP1;ratioP1;P1;durP2;ratioP2;P2;SDS_P1;SDS_P2;PMS_P1;PMS_P2;Temp;Humidity;BMP_temperature;BMP_pressure;BME280_temperature;BME280_humidity;BME280_pressure;Samples;Min_cycle;Max_cycle;Signal;HPM_P1;HPM_P2
2023/12/04 00:02:30;;;;;;;16.80;7.53;;;;;;;1.37;62.96;100638.81;10231413;28;20046;-59
2023/12/04 00:07:32;;;;;;;18.30;7.30;;;;;;;1.45;62.86;100625.03;10249756;28;20394;-59
2023/12/04 00:12:34;;;;;;;18.33;6.65;;;;;;;1.45;62.04;100621.53;10257785;28;20051;-59
2023/12/04 00:17:39;;;;;;;21.02;7.40;;;;;;;1.37;62.32;100612.34;10252682;28;20055;-59
2023/12/04 00:22:41;;;;;;;19.42;8.02;;;;;;;1.31;62.30;100609.28;10252193;28;20043;-59
2023/12/04 00:27:42;;;;;;;17.40;7.10;;;;;;;1.28;62.82;100612.16;10251091;28;20134;-60
2023/12/04 00:32:44;;;;;;;19.63;7.57;;;;;;;1.14;62.38;100610.47;10249988;28;20051;-59
2023/12/04 00:37:45;;;;;;;21.27;8.23;;;;;;;0.97;63.21;100601.09;10247471;28;20076;-60
2023/12/04 00:42:46;;;;;;;17.80;8.05;;;;;;;0.86;63.39;100587.78;10247887;28;20100;-59
2023/12/04 00:47:48;;;;;;;18.85;8.00;;;;;;;0.73;63.30;100591.28;10246707;28;20106;-59
2023/12/04 00:52:49;;;;;;;19.15;7.82;;;;;;;0.64;62.92;100573.41;10245845;28;20051;-59
2023/12/04 00:57:51;;;;;;;16.25;6.78;;;;;;;0.55;62.83;100574.91;10246612;28;20047;-59
2023/12/04 01:02:52;;;;;;;20.50;7.15;;;;;;;0.48;62.77;100576.25;10245171;28;20107;-59
2023/12/04 01:07:53;;;;;;;20.80;7.80;;;;;;;0.42;63.72;100566.09;10247328;28;20059;-59
2023/12/04 01:12:55;;;;;;;18.50;7.32;;;;;;;0.33;62.65;100567.56;10246300;28;20057;-59
2023/12/04 01:17:56;;;;;;;15.55;7.10;;;;;;;0.29;63.62;100554.66;10233987;28;20055;-59
2023/12/04 01:22:58;;;;;;;18.10;6.93;;;;;;;0.26;62.83;100558.38;10233532;28;20055;-59
2023/12/04 01:27:59;;;;;;;16.58;7.10;;;;;;;0.21;63.38;100554.34;10235134;28;20070;-58
2023/12/04 01:33:01;;;;;;;18.88;6.60;;;;;;;0.19;63.50;100543.88;10238876;28;20058;-59
2023/12/04 01:38:02;;;;;;;21.42;7.57;;;;;;;0.16;63.48;100550.22;10234105;28;20047;-59
2023/12/04 01:43:05;;;;;;;17.90;6.80;;;;;;;0.08;63.57;100541.97;10233892;28;20150;-59
2023/12/04 01:48:08;;;;;;;16.90;6.13;;;;;;;0.05;62.66;100539.53;10233569;28;20412;-58
2023/12/04 01:53:10;;;;;;;18.23;6.80;;;;;;;0.04;63.14;100529.91;10239270;28;20050;-60
2023/12/04 01:58:12;;;;;;;22.52;7.93;;;;;;;-0.04;62.71;100521.63;10236047;28;20050;-60
2023/12/04 02:03:13;;;;;;;15.73;6.22;;;;;;;-0.07;63.73;100516.59;10239470;28;20061;-59
2023/12/04 02:08:15;;;;;;;18.42;6.72;;;;;;;-0.09;63.55;100523.75;10254633;28;20106;-59
2023/12/04 02:13:16;;;;;;;17.33;7.00;;;;;;;-0.05;63.78;100534.00;10240201;28;20051;-59
2023/12/04 02:18:18;;;;;;;18.13;7.18;;;;;;;0.01;62.96;100540.69;10240799;28;20055;-59
2023/12/04 02:23:20;;;;;;;19.38;6.72;;;;;;;0.03;62.86;100528.22;10240376;28;20618;-59
2023/12/04 02:28:21;;;;;;;17.38;6.43;;;;;;;-0.07;63.30;100529.78;10240013;28;20458;-60
2023/12/04 02:33:24;;;;;;;15.65;7.05;;;;;;;-0.14;62.79;100513.47;10238693;28;20403;-59
2023/12/04 02:38:27;;;;;;;19.90;7.47;;;;;;;-0.17;63.09;100504.94;10238854;28;20054;-60
2023/12/04 02:43:29;;;;;;;19.27;7.68;;;;;;;-0.15;63.76;100495.97;10237721;28;20051;-59
2023/12/04 02:48:30;;;;;;;19.75;6.50;;;;;;;-0.20;63.57;100482.19;10238952;28;20392;-58
2023/12/04 02:53:32;;;;;;;23.27;7.32;;;;;;;-0.16;63.39;100488.97;10235940;28;20069;-59
2023/12/04 02:58:34;;;;;;;17.17;6.88;;;;;;;-0.21;63.76;100485.81;10238622;28;20051;-59
2023/12/04 03:03:35;;;;;;;16.20;7.38;;;;;;;-0.09;62.62;100470.94;10238316;28;20071;-62
2023/12/04 03:08:37;;;;;;;17.15;6.97;;;;;;;-0.03;63.20;100470.50;10237747;28;20043;-58
2023/12/04 03:13:38;;;;;;;20.52;7.15;;;;;;;-0.01;62.87;100458.03;10237196;28;20265;-59
2023/12/04 03:18:40;;;;;;;17.85;6.90;;;;;;;0.06;63.11;100455.78;10235773;28;20134;-59
2023/12/04 03:23:41;;;;;;;23.02;7.90;;;;;;;0.05;62.44;100440.91;10235350;28;20447;-59
2023/12/04 03:28:43;;;;;;;17.42;8.02;;;;;;;0.06;62.43;100450.50;10236518;28;20070;-60
2023/12/04 03:33:44;;;;;;;20.83;7.18;;;;;;;0.08;62.84;100438.91;10236119;28;20105;-60
2023/12/04 03:38:46;;;;;;;18.25;8.10;;;;;;;0.05;63.17;100428.53;10236579;28;20067;-60
2023/12/04 03:43:47;;;;;;;17.10;7.18;;;;;;;0.04;62.84;100424.22;10235717;28;20043;-59
2023/12/04 03:48:48;;;;;;;19.77;8.68;;;;;;;0.07;63.14;100413.41;10234785;28;20047;-59
2023/12/04 03:53:50;;;;;;;17.05;7.57;;;;;;;-0.02;62.55;100409.63;10233892;28;20054;-59
2023/12/04 03:58:51;;;;;;;20.77;8.35;;;;;;;-0.09;62.76;100399.59;10236044;28;20814;-59
2023/12/04 04:03:53;;;;;;;21.48;8.10;;;;;;;-0.06;62.69;100386.16;10234568;28;20122;-59
2023/12/04 04:08:54;;;;;;;19.17;8.00;;;;;;;0.02;63.13;100382.97;10235188;28;20550;-59
2023/12/04 04:13:55;;;;;;;19.80;7.78;;;;;;;-0.02;62.60;100374.41;10234195;28;20383;-59
2023/12/04 04:18:57;;;;;;;23.42;7.57;;;;;;;-0.02;62.94;100379.69;10235955;28;20043;-60
2023/12/04 04:23:59;;;;;;;20.65;8.40;;;;;;;0.03;62.41;100382.88;10235039;28;20061;-59
2023/12/04 04:29:00;;;;;;;20.17;8.65;;;;;;;0.10;63.05;100378.84;10236184;28;20047;-61
2023/12/04 04:34:01;;;;;;;19.75;7.30;;;;;;;0.09;62.22;100393.00;10232663;28;20058;-59
2023/12/04 04:39:03;;;;;;;24.20;8.77;;;;;;;0.14;62.97;100379.50;10235238;28;20043;-59
2023/12/04 04:44:04;;;;;;;22.70;8.02;;;;;;;0.18;62.47;100380.97;10233999;28;20372;-59
2023/12/04 04:49:09;;;;;;;18.35;7.60;;;;;;;0.21;62.78;100385.19;10234956;28;20053;-59
2023/12/04 04:54:10;;;;;;;19.83;8.55;;;;;;;0.22;62.35;100387.72;10233107;28;20047;-57
2023/12/04 04:59:12;;;;;;;19.73;7.50;;;;;;;0.21;62.64;100374.59;10234300;28;20043;-57
2023/12/04 05:04:13;;;;;;;18.83;7.60;;;;;;;0.20;62.12;100368.50;10232334;28;20031;-58
2023/12/04 05:09:15;;;;;;;23.77;8.50;;;;;;;0.19;62.05;100364.97;10234500;28;20082;-57
2023/12/04 05:14:17;;;;;;;24.88;9.02;;;;;;;0.18;62.06;100362.47;10233510;28;20058;-57
2023/12/04 05:19:18;;;;;;;18.73;8.10;;;;;;;0.14;62.92;100351.25;10233409;28;20047;-59
2023/12/04 05:24:20;;;;;;;19.77;8.18;;;;;;;0.13;62.51;100349.56;10233037;28;20074;-57
2023/12/04 05:29:21;;;;;;;20.15;8.35;;;;;;;0.11;62.20;100346.19;10234057;28;20043;-58
2023/12/04 05:34:23;;;;;;;23.92;8.35;;;;;;;0.07;63.07;100343.88;10230982;28;20066;-58
2023/12/04 05:39:25;;;;;;;22.83;8.57;;;;;;;0.04;63.11;100342.31;10234314;28;20051;-58
2023/12/04 05:44:27;;;;;;;25.27;9.45;;;;;;;0.02;63.18;100346.84;10231524;28;20047;-58
2023/12/04 05:49:29;;;;;;;21.40;8.90;;;;;;;0.01;62.87;100326.66;10231374;28;20051;-57
2023/12/04 05:54:30;;;;;;;16.85;7.68;;;;;;;0.05;62.72;100328.13;10239399;28;20137;-58
2023/12/04 05:59:32;;;;;;;23.83;8.48;;;;;;;0.00;63.26;100324.97;10251053;28;20399;-57
2023/12/04 06:04:33;;;;;;;18.02;7.60;;;;;;;-0.03;62.67;100312.81;10249264;28;21038;-57
2023/12/04 06:09:36;;;;;;;22.45;8.48;;;;;;;-0.08;62.44;100304.38;10258583;28;20419;-57
2023/12/04 06:14:38;;;;;;;19.73;7.68;;;;;;;-0.10;62.99;100302.78;10252449;28;20047;-58
2023/12/04 06:19:39;;;;;;;22.40;8.18;;;;;;;-0.17;62.72;100299.75;10254206;28;20043;-58
2023/12/04 06:24:41;;;;;;;22.42;9.15;;;;;;;-0.21;62.99;100291.19;10254810;28;20044;-58
2023/12/04 06:29:43;;;;;;;27.58;8.55;;;;;;;-0.19;62.67;100284.97;10268158;28;20047;-57
2023/12/04 06:34:45;;;;;;;19.92;7.88;;;;;;;-0.18;63.44;100297.19;10253968;28;20081;-58
2023/12/04 06:39:48;;;;;;;21.83;8.10;;;;;;;-0.22;63.42;100293.91;10264755;28;20054;-58
2023/12/04 06:44:49;;;;;;;23.67;9.20;;;;;;;-0.26;62.91;100303.00;10262926;28;20051;-58
2023/12/04 06:49:51;;;;;;;19.30;7.82;;;;;;;-0.20;63.15;100299.94;10260405;28;20122;-57
2023/12/04 06:54:52;;;;;;;24.88;8.77;;;;;;;-0.19;62.58;100296.38;10259264;28;20074;-57
2023/12/04 06:59:54;;;;;;;23.52;9.02;;;;;;;-0.13;62.80;100303.00;10260156;28;20118;-58
2023/12/04 07:04:55;;;;;;;27.33;9.48;;;;;;;-0.04;63.14;100281.19;10249853;28;20075;-59
2023/12/04 07:09:57;;;;;;;20.30;8.25;;;;;;;0.06;62.87;100257.59;10247906;28;20054;-58
2023/12/04 07:14:58;;;;;;;19.63;8.93;;;;;;;0.11;62.86;100268.69;10249920;28;20585;-57
2023/12/04 07:20:00;;;;;;;24.20;8.80;;;;;;;0.15;62.50;100265.72;10247894;28;20434;-57
2023/12/04 07:25:01;;;;;;;21.48;8.77;;;;;;;0.21;62.63;100240.66;10246291;28;20039;-56
2023/12/04 07:30:03;;;;;;;25.02;9.95;;;;;;;0.29;62.06;100240.09;10244872;28;20054;-57
2023/12/04 07:35:06;;;;;;;22.70;8.77;;;;;;;0.32;62.33;100227.50;10260733;28;20134;-60
2023/12/04 07:40:08;;;;;;;23.48;8.25;;;;;;;0.44;62.91;100204.59;10250934;28;20051;-56
2023/12/04 07:45:10;;;;;;;20.80;8.35;;;;;;;0.46;62.65;100221.19;10233073;28;20395;-57
2023/12/04 07:50:12;;;;;;;20.40;8.68;;;;;;;0.43;62.71;100212.63;10245372;28;20122;-61
2023/12/04 07:55:14;;;;;;;23.70;8.98;;;;;;;0.40;63.17;100229.56;10256219;28;20046;-59
2023/12/04 08:00:17;;;;;;;27.08;9.20;;;;;;;0.53;62.93;100213.63;10256616;28;20051;-57
2023/12/04 08:05:19;;;;;;;21.40;8.75;;;;;;;0.59;62.78;100210.50;10260904;28;20063;-60
2023/12/04 08:10:22;;;;;;;23.92;9.05;;;;;;;0.67;62.75;100208.16;10261879;28;20070;-59
2023/12/04 08:15:24;;;;;;;21.02;8.90;;;;;;;0.84;62.12;100214.78;10256563;28;20466;-62
2023/12/04 08:20:25;;;;;;;23.73;9.98;;;;;;;0.90;61.78;100210.84;10244150;28;20047;-62
2023/12/04 08:25:38;;;;;;;22.63;8.75;;;;;;;1.15;62.23;100201.88;10240950;28;20117;-61
2023/12/04 08:30:39;;;;;;;20.42;7.47;;;;;;;1.38;61.34;100189.44;10233536;28;20055;-62
2023/12/04 08:35:41;;;;;;;21.80;8.52;;;;;;;1.45;61.51;100184.53;10228660;28;20134;-61
2023/12/04 08:40:43;;;;;;;17.30;7.53;;;;;;;1.55;60.94;100166.94;10233175;28;20052;-61
2023/12/04 08:45:45;;;;;;;22.95;8.75;;;;;;;1.67;61.07;100152.69;10230523;28;20843;-61
2023/12/04 08:50:47;;;;;;;16.40;7.88;;;;;;;1.90;60.77;100144.72;10232434;28;20059;-61
2023/12/04 08:55:48;;;;;;;18.25;8.05;;;;;;;2.09;61.04;100126.31;10229566;28;20076;-61
2023/12/04 09:00:50;;;;;;;22.17;8.90;;;;;;;2.10;60.84;100117.41;10231059;28;20585;-62
2023/12/04 09:05:51;;;;;;;20.60;8.45;;;;;;;2.20;60.42;100125.44;10234407;28;20164;-62
2023/12/04 09:10:54;;;;;;;20.40;7.45;;;;;;;2.26;60.89;100130.22;10235431;28;20387;-62
2023/12/04 09:16:15;;;;;;;19.13;8.23;;;;;;;2.42;60.03;100116.50;10230846;28;20086;-62
2023/12/04 09:21:16;;;;;;;17.13;8.88;;;;;;;2.50;60.06;100115.88;10233512;28;20541;-62
2023/12/04 09:26:18;;;;;;;18.75;8.57;;;;;;;2.70;59.77;100112.34;10264685;28;20083;-63
2023/12/04 09:31:19;;;;;;;22.48;8.43;;;;;;;2.76;59.49;100121.59;10282625;28;20136;-62
2023/12/04 09:36:21;;;;;;;15.85;7.70;;;;;;;2.74;59.62;100126.19;10300168;28;20031;-61
2023/12/04 09:41:23;;;;;;;17.33;7.78;;;;;;;2.66;59.91;100126.00;10283533;28;20043;-63
2023/12/04 09:46:24;;;;;;;13.13;6.68;;;;;;;2.67;59.54;100112.63;10286405;28;20035;-63
2023/12/04 09:51:27;;;;;;;17.08;7.88;;;;;;;2.78;59.32;100106.38;10282316;28;20035;-63
2023/12/04 09:56:29;;;;;;;15.32;8.40;;;;;;;2.84;58.92;100091.75;10286437;28;20047;-63
2023/12/04 10:01:31;;;;;;;18.35;8.05;;;;;;;2.86;59.10;100087.13;10286581;28;20050;-63
2023/12/04 10:06:38;;;;;;;15.10;7.28;;;;;;;2.78;59.12;100082.50;10284386;28;20062;-63
2023/12/04 10:11:41;;;;;;;21.77;8.18;;;;;;;2.80;58.86;100092.97;10289627;28;20069;-63
2023/12/04 10:16:44;;;;;;;14.73;7.07;;;;;;;2.92;58.36;100083.94;10295042;28;20034;-62
2023/12/04 10:21:47;;;;;;;17.27;8.43;;;;;;;2.93;58.51;100077.69;10276922;28;20172;-63
2023/12/04 10:26:51;;;;;;;22.73;8.45;;;;;;;2.95;58.53;100071.25;10241101;28;20595;-61
2023/12/04 10:31:54;;;;;;;19.08;7.97;;;;;;;3.03;58.17;100059.97;10245016;28;20062;-60
2023/12/04 10:36:58;;;;;;;24.85;7.25;;;;;;;3.10;57.94;100061.13;10242114;28;20051;-60
2023/12/04 10:42:02;;;;;;;14.25;7.70;;;;;;;3.24;57.62;100036.00;10242677;28;20494;-59
2023/12/04 10:47:04;;;;;;;19.33;8.05;;;;;;;3.31;57.55;100038.94;10243484;28;20054;-67
2023/12/04 10:52:05;;;;;;;19.13;8.05;;;;;;;3.45;57.48;100024.41;10239021;28;20035;-61
2023/12/04 10:57:08;;;;;;;16.08;6.68;;;;;;;3.54;57.38;100026.25;10236557;28;20256;-61
2023/12/04 11:02:19;;;;;;;16.48;7.68;;;;;;;3.63;57.14;100040.50;10231295;28;20102;-61
2023/12/04 11:07:25;;;;;;;18.88;7.50;;;;;;;3.79;56.92;100014.22;10235472;28;20047;-61
2023/12/04 11:12:29;;;;;;;17.25;7.38;;;;;;;3.87;56.90;100016.16;10238204;28;20039;-61
2023/12/04 11:17:34;;;;;;;16.17;6.80;;;;;;;3.94;56.89;100007.47;10240964;28;20174;-62
2023/12/04 11:22:39;;;;;;;16.13;7.45;;;;;;;4.11;56.03;100003.28;10238319;28;20043;-60
2023/12/04 11:27:42;;;;;;;17.25;8.15;;;;;;;4.23;56.19;99982.66;10238839;28;20074;-60
2023/12/04 11:32:45;;;;;;;16.50;6.88;;;;;;;4.26;55.98;99992.16;10239108;28;20078;-62
2023/12/04 11:37:47;;;;;;;14.95;7.32;;;;;;;4.04;56.05;99988.84;10241621;28;20046;-62
2023/12/04 11:42:49;;;;;;;15.50;6.97;;;;;;;3.90;56.04;99976.84;10237769;28;20077;-66
2023/12/04 11:47:57;;;;;;;14.45;6.57;;;;;;;3.88;55.96;99972.66;10234820;28;20051;-64
2023/12/04 11:53:02;;;;;;;11.85;6.10;;;;;;;3.88;55.44;99962.84;10233152;28;20047;-65
2023/12/04 11:58:09;;;;;;;18.55;7.70;;;;;;;3.75;55.58;99935.72;10238754;28;20059;-66
2023/12/04 12:03:14;;;;;;;10.15;4.68;;;;;;;3.52;56.07;99928.06;10237249;28;20046;-65
2023/12/04 12:08:24;;;;;;;15.05;6.70;;;;;;;3.40;56.06;99917.72;10234515;28;20594;-66
2023/12/04 12:13:26;;;;;;;16.67;6.78;;;;;;;3.25;56.32;99907.50;10236239;28;20044;-64
2023/12/04 12:18:27;;;;;;;15.15;6.80;;;;;;;3.18;56.74;99904.59;10236618;28;20059;-64
2023/12/04 12:23:30;;;;;;;16.02;7.22;;;;;;;2.96;57.40;99892.44;10233897;28;20379;-64
2023/12/04 12:28:31;;;;;;;14.63;6.53;;;;;;;2.82;57.89;99886.66;10228537;28;20047;-67
2023/12/04 12:33:33;;;;;;;17.38;6.95;;;;;;;2.76;57.81;99877.44;10228131;28;20054;-65
2023/12/04 12:38:35;;;;;;;12.98;6.38;;;;;;;2.72;58.69;99862.75;10222613;28;20051;-65
2023/12/04 12:43:37;;;;;;;16.98;7.22;;;;;;;2.60;59.14;99870.00;10235145;28;20046;-64
2023/12/04 12:48:39;;;;;;;15.30;7.32;;;;;;;2.48;59.35;99856.00;10220200;28;20047;-65
2023/12/04 12:53:40;;;;;;;14.75;7.35;;;;;;;2.42;59.76;99847.78;10235043;28;20106;-60
2023/12/04 12:58:45;;;;;;;19.40;7.47;;;;;;;2.34;59.82;99830.72;10239253;28;20196;-61
2023/12/04 13:03:47;;;;;;;17.52;7.47;;;;;;;2.29;60.33;99826.78;10238999;28;20510;-61
2023/12/04 13:08:49;;;;;;;18.27;8.02;;;;;;;2.34;60.33;99824.59;10232909;28;20178;-59
2023/12/04 13:13:50;;;;;;;16.50;7.88;;;;;;;2.19;60.86;99813.50;10237718;28;20051;-59
2023/12/04 13:18:51;;;;;;;19.08;8.60;;;;;;;2.20;60.70;99801.09;10239114;28;20134;-60
2023/12/04 13:23:53;;;;;;;19.67;8.30;;;;;;;2.29;60.40;99792.31;10236850;28;20039;-61
2023/12/04 13:28:55;;;;;;;16.40;6.82;;;;;;;2.27;61.24;99778.34;10240225;28;20070;-60
2023/12/04 13:33:56;;;;;;;14.35;6.93;;;;;;;2.24;61.00;99763.56;10213872;28;20035;-62
2023/12/04 13:38:58;;;;;;;18.63;8.90;;;;;;;2.20;61.18;99756.88;10234926;28;20058;-60
2023/12/04 13:43:59;;;;;;;19.95;8.52;;;;;;;2.23;61.64;99753.09;10234194;28;20490;-60
2023/12/04 13:49:01;;;;;;;19.17;7.63;;;;;;;2.25;61.21;99733.44;10249308;28;20050;-61
2023/12/04 13:54:13;;;;;;;18.30;7.82;;;;;;;2.09;62.12;99723.34;10238299;28;20043;-62
2023/12/04 13:59:19;;;;;;;21.20;8.23;;;;;;;2.13;62.02;99716.81;10236606;28;20050;-61
2023/12/04 14:04:23;;;;;;;19.83;8.43;;;;;;;2.20;61.91;99710.97;10237048;28;20384;-66
2023/12/04 14:09:25;;;;;;;16.30;7.28;;;;;;;2.25;62.00;99714.88;10236291;28;20051;-64
2023/12/04 14:14:27;;;;;;;16.23;7.45;;;;;;;2.25;62.12;99700.75;10233674;28;20410;-66
2023/12/04 14:19:28;;;;;;;19.42;7.75;;;;;;;2.22;62.25;99695.75;10240384;28;20409;-64
2023/12/04 14:24:30;;;;;;;19.98;7.82;;;;;;;2.22;62.82;99687.81;10255144;28;20106;-66
2023/12/04 14:29:32;;;;;;;17.25;7.40;;;;;;;2.27;62.57;99674.94;10236987;28;20043;-67
2023/12/04 14:34:33;;;;;;;15.73;7.18;;;;;;;2.29;62.67;99665.91;10236113;28;20043;-65
2023/12/04 14:39:35;;;;;;;12.32;6.20;;;;;;;2.28;63.09;99658.06;10236361;28;20051;-64
2023/12/04 14:44:37;;;;;;;16.08;7.05;;;;;;;2.24;63.24;99646.91;10230007;28;20471;-66
2023/12/04 14:49:38;;;;;;;16.55;6.90;;;;;;;2.26;63.20;99644.13;10235034;28;20056;-64
2023/12/04 14:54:51;;;;;;;13.50;6.72;;;;;;;2.17;63.24;99641.34;10231971;28;20047;-66
2023/12/04 15:11:25;;;;;;;15.18;7.35;;;;;;;2.03;63.79;99620.53;10074540;29;20045;-64
2023/12/04 15:16:48;;;;;;;16.30;6.97;;;;;;;2.02;63.91;99615.38;10216507;28;20057;-63
2023/12/04 15:21:50;;;;;;;18.67;7.00;;;;;;;2.04;63.99;99608.13;10239992;28;20076;-66
2023/12/04 15:26:52;;;;;;;16.55;7.43;;;;;;;1.92;65.06;99605.59;10236855;28;20487;-65
2023/12/04 15:31:53;;;;;;;17.08;7.70;;;;;;;1.90;64.67;99602.25;10236295;28;20055;-65
2023/12/04 15:36:55;;;;;;;20.40;7.80;;;;;;;1.92;64.55;99588.88;10235026;28;20495;-64
2023/12/04 15:41:56;;;;;;;15.63;8.13;;;;;;;1.88;64.63;99577.72;10252553;28;20043;-66
2023/12/04 15:46:58;;;;;;;18.30;6.90;;;;;;;1.97;64.88;99573.38;10218160;28;20121;-66
2023/12/04 15:52:03;;;;;;;16.25;7.18;;;;;;;1.98;64.74;99569.75;10237777;28;20051;-64
2023/12/04 15:57:05;;;;;;;23.38;10.55;;;;;;;1.87;65.18;99573.38;10230190;28;20054;-66
2023/12/04 16:02:06;;;;;;;26.42;11.85;;;;;;;1.72;65.33;99566.84;10245920;28;20058;-65
2023/12/04 16:07:08;;;;;;;21.25;10.60;;;;;;;1.75;65.87;99572.66;10251557;28;20051;-66
2023/12/04 16:12:10;;;;;;;23.48;10.95;;;;;;;1.77;65.84;99564.59;10235326;28;20058;-65
2023/12/04 16:17:11;;;;;;;26.13;11.50;;;;;;;1.82;66.02;99550.91;10230985;28;20483;-66
2023/12/04 16:22:13;;;;;;;20.67;9.45;;;;;;;1.74;65.72;99549.00;10234849;28;20073;-65
2023/12/04 16:27:14;;;;;;;19.05;9.10;;;;;;;1.88;66.12;99542.44;10232232;28;20062;-66
2023/12/04 16:32:16;;;;;;;19.30;8.90;;;;;;;1.97;65.24;99538.91;10231478;28;20587;-67
2023/12/04 16:37:18;;;;;;;21.67;9.32;;;;;;;2.04;65.82;99525.97;10235379;28;20047;-66
2023/12/04 16:42:19;;;;;;;21.35;9.32;;;;;;;1.99;65.98;99513.13;10232979;28;20058;-65
2023/12/04 16:47:21;;;;;;;21.08;8.98;;;;;;;1.98;65.87;99508.81;10249113;28;20118;-62
2023/12/04 16:52:22;;;;;;;22.50;9.85;;;;;;;1.89;66.10;99513.13;10253175;28;20039;-61
2023/12/04 16:57:24;;;;;;;24.05;9.18;;;;;;;1.97;66.30;99501.81;10242272;28;20051;-62
2023/12/04 17:02:25;;;;;;;19.67;8.40;;;;;;;1.91;66.43;99503.22;10244019;28;20047;-62
2023/12/04 17:07:27;;;;;;;19.80;8.63;;;;;;;2.02;67.08;99498.75;10255128;28;20107;-61
2023/12/04 17:12:31;;;;;;;21.45;9.30;;;;;;;1.95;66.58;99491.34;10247782;28;20051;-62
2023/12/04 17:17:32;;;;;;;22.67;9.25;;;;;;;1.97;67.14;99497.38;10252979;28;20043;-62
2023/12/04 17:22:34;;;;;;;22.65;9.40;;;;;;;2.07;67.05;99485.91;10254148;28;20069;-61
2023/12/04 17:27:36;;;;;;;20.48;8.90;;;;;;;2.01;67.44;99482.00;10255401;28;20337;-61
2023/12/04 17:32:38;;;;;;;28.35;10.60;;;;;;;2.17;66.78;99463.72;10249429;28;20094;-58
2023/12/04 17:37:40;;;;;;;24.60;10.13;;;;;;;2.22;66.92;99457.97;10239370;28;20082;-58
2023/12/04 17:42:42;;;;;;;22.98;10.52;;;;;;;2.31;66.51;99453.59;10241192;28;20067;-58
2023/12/04 17:47:44;;;;;;;26.90;10.05;;;;;;;2.37;66.69;99440.59;10235322;28;20133;-59
2023/12/04 17:52:45;;;;;;;28.23;9.70;;;;;;;2.41;67.08;99450.91;10248429;28;20479;-58
2023/12/04 17:57:47;;;;;;;21.17;10.00;;;;;;;2.44;67.31;99445.31;10232905;28;20134;-59
2023/12/04 18:02:48;;;;;;;21.90;10.50;;;;;;;2.43;66.92;99447.16;10228279;28;20131;-59
2023/12/04 18:07:50;;;;;;;23.63;9.55;;;;;;;2.54;67.41;99436.31;10234457;28;20059;-59
2023/12/04 18:12:51;;;;;;;19.42;8.98;;;;;;;2.55;67.75;99435.34;10234887;28;20102;-59
2023/12/04 18:17:53;;;;;;;17.60;8.48;;;;;;;2.55;67.84;99427.41;10233274;28;20046;-59
2023/12/04 18:22:55;;;;;;;19.05;8.65;;;;;;;2.56;67.69;99423.75;10229995;28;20565;-59
2023/12/04 18:27:58;;;;;;;17.25;8.30;;;;;;;2.63;68.20;99413.41;10251197;28;20043;-59
2023/12/04 18:33:00;;;;;;;18.98;7.82;;;;;;;2.62;68.39;99403.75;10240254;28;20121;-59
2023/12/04 18:38:11;;;;;;;22.67;9.32;;;;;;;2.62;68.46;99400.28;10241942;28;20051;-61
2023/12/04 18:43:12;;;;;;;20.85;9.68;;;;;;;2.64;68.51;99398.31;10241524;28;20059;-59
2023/12/04 18:48:19;;;;;;;19.05;8.50;;;;;;;2.70;68.21;99393.22;10247104;28;20066;-59
2023/12/04 18:53:21;;;;;;;17.75;8.07;;;;;;;2.73;68.39;99387.63;10243911;28;20051;-60
2023/12/04 18:58:22;;;;;;;16.13;8.00;;;;;;;2.78;68.20;99377.44;10232031;28;20043;-57
2023/12/04 19:03:24;;;;;;;19.08;10.23;;;;;;;2.74;68.46;99373.38;10240234;28;20058;-58
2023/12/04 19:08:25;;;;;;;24.58;11.25;;;;;;;2.72;68.71;99367.38;10223412;28;20058;-59
2023/12/04 19:13:27;;;;;;;21.25;9.07;;;;;;;2.77;68.10;99362.47;10258764;28;20574;-59
2023/12/04 19:18:29;;;;;;;21.15;9.27;;;;;;;2.81;68.11;99357.69;10249929;28;20159;-59
2023/12/04 19:23:31;;;;;;;23.05;8.75;;;;;;;2.85;68.28;99358.25;10261233;28;20055;-58
2023/12/04 19:28:32;;;;;;;17.42;8.57;;;;;;;2.80;68.25;99350.72;10248769;28;20414;-59
2023/12/04 19:33:34;;;;;;;19.63;8.80;;;;;;;2.92;68.07;99344.22;10245675;28;20077;-59
2023/12/04 19:38:35;;;;;;;20.23;9.27;;;;;;;3.00;68.19;99332.81;10247027;28;20056;-59
2023/12/04 19:43:39;;;;;;;22.52;9.13;;;;;;;3.05;68.42;99322.59;10252031;28;20079;-59
2023/12/04 19:48:41;;;;;;;16.65;8.02;;;;;;;3.03;68.14;99326.38;10239748;28;20043;-58
2023/12/04 19:53:42;;;;;;;20.27;9.43;;;;;;;3.08;68.46;99321.44;10233226;28;20496;-58
2023/12/04 19:58:44;;;;;;;19.02;8.10;;;;;;;3.12;68.18;99313.03;10230351;28;20058;-59
2023/12/04 20:03:45;;;;;;;15.63;7.75;;;;;;;3.16;68.21;99302.94;10233684;28;20043;-59
2023/12/04 20:08:47;;;;;;;19.35;8.45;;;;;;;3.21;68.03;99305.94;10232597;28;20051;-58
2023/12/04 20:13:48;;;;;;;20.33;8.50;;;;;;;3.23;67.94;99303.16;10244748;28;20664;-57
2023/12/04 20:18:50;;;;;;;17.70;8.02;;;;;;;3.21;67.98;99311.25;10231771;28;20383;-57
2023/12/04 20:23:51;;;;;;;14.43;7.70;;;;;;;3.23;68.38;99313.75;10233260;28;20043;-58
2023/12/04 20:28:53;;;;;;;17.17;8.07;;;;;;;3.29;68.32;99298.03;10231146;28;20410;-58
2023/12/04 20:33:55;;;;;;;17.90;8.15;;;;;;;3.28;68.29;99301.69;10230570;28;21109;-58
2023/12/04 20:38:57;;;;;;;21.88;9.95;;;;;;;3.32;68.15;99289.78;10231470;28;20057;-58
2023/12/04 20:43:58;;;;;;;18.38;8.23;;;;;;;3.36;68.12;99277.03;10218184;28;20135;-58
2023/12/04 20:49:03;;;;;;;18.42;8.48;;;;;;;3.38;68.03;99281.19;10229981;28;20047;-58
2023/12/04 20:54:05;;;;;;;17.60;8.90;;;;;;;3.36;68.17;99274.38;10232795;28;20517;-59
2023/12/04 20:59:07;;;;;;;18.30;8.40;;;;;;;3.34;68.41;99261.22;10232020;28;20039;-58
2023/12/04 21:04:08;;;;;;;16.10;8.20;;;;;;;3.34;68.28;99271.03;10232928;28;20047;-59
2023/12/04 21:09:10;;;;;;;15.63;7.35;;;;;;;3.29;68.37;99260.84;10233630;28;20477;-59
2023/12/04 21:14:12;;;;;;;16.55;7.43;;;;;;;3.32;68.32;99255.25;10228484;28;20097;-59
2023/12/04 21:19:13;;;;;;;21.55;9.13;;;;;;;3.24;68.76;99257.84;10232433;28;20054;-59
2023/12/04 21:24:18;;;;;;;21.35;8.80;;;;;;;3.17;68.79;99252.31;10228197;28;20051;-59
2023/12/04 21:29:19;;;;;;;19.02;8.70;;;;;;;3.14;69.07;99247.34;10230472;28;20055;-59
2023/12/04 21:34:21;;;;;;;18.30;9.07;;;;;;;3.09;69.08;99241.63;10232520;28;20047;-59
2023/12/04 21:39:22;;;;;;;20.92;8.75;;;;;;;3.11;69.05;99237.00;10233964;28;20106;-60
2023/12/04 21:44:24;;;;;;;19.63;9.15;;;;;;;3.19;69.17;99230.91;10232900;28;20070;-59
2023/12/04 21:49:25;;;;;;;21.52;10.63;;;;;;;3.10;68.95;99224.75;10232043;28;20051;-60
2023/12/04 21:54:27;;;;;;;20.52;8.93;;;;;;;3.09;69.38;99232.84;10233609;28;20126;-59
2023/12/04 21:59:29;;;;;;;20.98;9.55;;;;;;;3.08;69.23;99221.41;10234209;28;20058;-60
2023/12/04 22:04:30;;;;;;;22.17;9.75;;;;;;;3.12;69.05;99216.59;10234130;28;20047;-59
2023/12/04 22:09:32;;;;;;;18.17;9.32;;;;;;;3.12;69.56;99209.47;10242581;28;20051;-59
2023/12/04 22:14:33;;;;;;;17.73;8.75;;;;;;;3.13;69.26;99208.47;10239835;28;20162;-60
2023/12/04 22:19:35;;;;;;;20.42;9.30;;;;;;;3.08;69.51;99202.81;10241294;28;20118;-60
2023/12/04 22:24:36;;;;;;;20.38;9.35;;;;;;;3.10;69.12;99203.50;10238107;28;20122;-59
2023/12/04 22:29:38;;;;;;;19.65;8.57;;;;;;;3.15;69.21;99201.19;10243482;28;20519;-59
2023/12/04 22:34:39;;;;;;;22.35;8.98;;;;;;;3.14;69.40;99204.84;10242497;28;20542;-59
2023/12/04 22:39:41;;;;;;;21.27;9.48;;;;;;;3.10;69.20;99202.63;10240794;28;20078;-60
2023/12/04 22:44:42;;;;;;;22.13;9.15;;;;;;;3.17;69.46;99206.34;10240325;28;20043;-59
2023/12/04 22:49:44;;;;;;;22.35;9.82;;;;;;;3.15;69.29;99195.06;10240866;28;20059;-61
2023/12/04 22:54:45;;;;;;;16.80;9.55;;;;;;;3.24;69.25;99191.47;10242020;28;20040;-60
2023/12/04 22:59:47;;;;;;;17.98;9.43;;;;;;;3.28;69.06;99191.97;10242572;28;20087;-59
2023/12/04 23:04:48;;;;;;;23.05;8.93;;;;;;;3.29;69.16;99191.81;10240074;28;20598;-58
2023/12/04 23:09:50;;;;;;;20.45;10.55;;;;;;;3.32;69.13;99177.41;10240450;28;20035;-59
2023/12/04 23:14:51;;;;;;;20.10;9.60;;;;;;;3.37;68.96;99183.88;10240255;28;20078;-61
2023/12/04 23:19:53;;;;;;;25.85;12.82;;;;;;;3.27;69.40;99185.81;10241522;28;20054;-59
2023/12/04 23:24:55;;;;;;;17.58;9.63;;;;;;;3.32;69.26;99177.41;10241690;28;20062;-59